PWSweather.com
Personal Weather Stations
Station Observations
KOHAVON11
Long Road Station, Avon, OH 44011

Long Road StationAvon, OH 44011

Lat: 41.437, Lon: -82.0477

Elevation: 686

Station Type: Davis Vantage Pro2

http://www.avon-weather.com

High Low Average
Temperature 46.4°F8.0°C 30.6°F-0.8°C 37.7°F3.2°C
Dew Point 34.1°F1.2°C 25.0°F-3.9°C 29.7°F-1.3°C
Winds 15.0 mph 24.1 kmh Calm Calm 5.0 mph S8.0 kmh S
Wind Gusts 21.0 mph33.8 kmh -- 11.0 mph17.7 kmh
Humidity 88% 51% 74%
Pressure 30.33 in1027.1 mb 29.81 in1009.5 mb -
Precipitation 0.06 in1.5 mm - -
Hour Temp Dew Point Humidity Winds Wind Gusts Pressure Precip Precip Rate Daily Precip Total
12:01 AM 35.6°F2.0°C 30.9°F-0.6°C 83% 8.0 mph ENE12.9 kmh ENE 11.0 mph17.7 kmh 29.82 in1009.8 mb 0.00 in0.0 mm 0.00 in0.0 mm 0.00 in0.0 mm
12:06 AM 35.6°F2.0°C 30.9°F-0.6°C 83% 4.0 mph ENE6.4 kmh ENE 13.0 mph20.9 kmh 29.82 in1009.8 mb 0.00 in0.0 mm 0.00 in0.0 mm 0.00 in0.0 mm
12:11 AM 35.7°F2.1°C 31.0°F-0.6°C 83% 5.0 mph NE8.0 kmh NE 13.0 mph20.9 kmh 29.82 in1009.8 mb 0.00 in0.0 mm 0.00 in0.0 mm 0.00 in0.0 mm
12:16 AM 35.7°F2.1°C 31.0°F-0.6°C 83% 6.0 mph NNE9.7 kmh NNE 13.0 mph20.9 kmh 29.81 in1009.5 mb 0.00 in0.0 mm 0.00 in0.0 mm 0.00 in0.0 mm
12:21 AM 35.7°F2.1°C 31.0°F-0.6°C 83% 3.0 mph NE4.8 kmh NE 13.0 mph20.9 kmh 29.81 in1009.5 mb 0.00 in0.0 mm 0.00 in0.0 mm 0.00 in0.0 mm
12:26 AM 35.7°F2.1°C 31.0°F-0.6°C 83% 6.0 mph NNE9.7 kmh NNE 11.0 mph17.7 kmh 29.82 in1009.8 mb 0.00 in0.0 mm 0.00 in0.0 mm 0.00 in0.0 mm
12:31 AM 35.7°F2.1°C 31.0°F-0.6°C 83% 4.0 mph NE6.4 kmh NE 11.0 mph17.7 kmh 29.82 in1009.8 mb 0.00 in0.0 mm 0.00 in0.0 mm 0.00 in0.0 mm
12:36 AM 35.7°F2.1°C 31.0°F-0.6°C 83% 13.0 mph NNE20.9 kmh NNE 13.0 mph20.9 kmh 29.82 in1009.8 mb 0.00 in0.0 mm 0.00 in0.0 mm 0.00 in0.0 mm
12:41 AM 35.6°F2.0°C 30.9°F-0.6°C 83% 7.0 mph NNE11.3 kmh NNE 13.0 mph20.9 kmh 29.82 in1009.8 mb 0.00 in0.0 mm 0.00 in0.0 mm 0.00 in0.0 mm
12:46 AM 35.5°F1.9°C 30.8°F-0.7°C 83% 4.0 mph NE6.4 kmh NE 13.0 mph20.9 kmh 29.81 in1009.5 mb 0.00 in0.0 mm 0.00 in0.0 mm 0.00 in0.0 mm
12:51 AM 35.5°F1.9°C 31.1°F-0.5°C 84% 5.0 mph NE8.0 kmh NE 13.0 mph20.9 kmh 29.81 in1009.5 mb 0.00 in0.0 mm 0.00 in0.0 mm 0.00 in0.0 mm
12:56 AM 35.4°F1.9°C 31.0°F-0.6°C 84% 3.0 mph 4.8 kmh 13.0 mph20.9 kmh 29.82 in1009.8 mb 0.00 in0.0 mm 0.00 in0.0 mm 0.00 in0.0 mm
01:01 AM 35.3°F1.8°C 31.0°F-0.6°C 84% 4.0 mph NE6.4 kmh NE 11.0 mph17.7 kmh 29.82 in1009.8 mb 0.00 in0.0 mm 0.00 in0.0 mm 0.00 in0.0 mm
01:06 AM 35.3°F1.8°C 31.0°F-0.6°C 84% 7.0 mph 11.3 kmh 11.0 mph17.7 kmh 29.82 in1009.8 mb 0.00 in0.0 mm 0.00 in0.0 mm 0.00 in0.0 mm
01:11 AM 35.2°F1.8°C 31.2°F-0.4°C 85% Calm Calm 11.0 mph17.7 kmh 29.82 in1009.8 mb 0.00 in0.0 mm 0.00 in0.0 mm 0.00 in0.0 mm
01:16 AM 35.2°F1.8°C 31.2°F-0.4°C 85% 8.0 mph NNE12.9 kmh NNE 11.0 mph17.7 kmh 29.82 in1009.8 mb 0.00 in0.0 mm 0.00 in0.0 mm 0.00 in0.0 mm
01:21 AM 35.1°F1.7°C 31.1°F-0.5°C 85% 3.0 mph NNE4.8 kmh NNE 10.0 mph16.1 kmh 29.82 in1009.8 mb 0.00 in0.0 mm 0.00 in0.0 mm 0.00 in0.0 mm
01:26 AM 35.1°F1.7°C 31.1°F-0.5°C 85% 9.0 mph NNE14.5 kmh NNE 10.0 mph16.1 kmh 29.82 in1009.8 mb 0.00 in0.0 mm 0.00 in0.0 mm 0.00 in0.0 mm
01:31 AM 35.0°F1.7°C 31.0°F-0.6°C 85% 6.0 mph NNE9.7 kmh NNE 11.0 mph17.7 kmh 29.82 in1009.8 mb 0.00 in0.0 mm 0.00 in0.0 mm 0.00 in0.0 mm
01:36 AM 34.8°F1.6°C 30.8°F-0.7°C 85% 5.0 mph N8.0 kmh N 11.0 mph17.7 kmh 29.83 in1010.2 mb 0.00 in0.0 mm 0.00 in0.0 mm 0.00 in0.0 mm
01:41 AM 34.8°F1.6°C 30.8°F-0.7°C 85% 7.0 mph NE11.3 kmh NE 11.0 mph17.7 kmh 29.83 in1010.2 mb 0.00 in0.0 mm 0.00 in0.0 mm 0.00 in0.0 mm
01:46 AM 34.7°F1.5°C 30.7°F-0.7°C 85% 3.0 mph NE4.8 kmh NE 11.0 mph17.7 kmh 29.83 in1010.2 mb 0.00 in0.0 mm 0.00 in0.0 mm 0.00 in0.0 mm
01:51 AM 34.7°F1.5°C 30.7°F-0.7°C 85% 9.0 mph NE14.5 kmh NE 11.0 mph17.7 kmh 29.82 in1009.8 mb 0.00 in0.0 mm 0.00 in0.0 mm 0.00 in0.0 mm
01:56 AM 34.7°F1.5°C 31.0°F-0.6°C 86% 4.0 mph NE6.4 kmh NE 11.0 mph17.7 kmh 29.82 in1009.8 mb 0.00 in0.0 mm 0.00 in0.0 mm 0.00 in0.0 mm
02:01 AM 34.7°F1.5°C 31.0°F-0.6°C 86% 4.0 mph N6.4 kmh N 11.0 mph17.7 kmh 29.82 in1009.8 mb 0.00 in0.0 mm 0.00 in0.0 mm 0.00 in0.0 mm
02:06 AM 34.6°F1.4°C 30.9°F-0.6°C 86% 5.0 mph NE8.0 kmh NE 11.0 mph17.7 kmh 29.81 in1009.5 mb 0.00 in0.0 mm 0.00 in0.0 mm 0.00 in0.0 mm
02:11 AM 34.5°F1.4°C 30.8°F-0.7°C 86% 8.0 mph N12.9 kmh N 12.0 mph19.3 kmh 29.81 in1009.5 mb 0.00 in0.0 mm 0.00 in0.0 mm 0.00 in0.0 mm
02:16 AM 34.4°F1.3°C 30.7°F-0.7°C 86% 6.0 mph NE9.7 kmh NE 12.0 mph19.3 kmh 29.81 in1009.5 mb 0.00 in0.0 mm 0.00 in0.0 mm 0.00 in0.0 mm
02:21 AM 34.3°F1.3°C 30.6°F-0.8°C 86% 4.0 mph N6.4 kmh N 12.0 mph19.3 kmh 29.81 in1009.5 mb 0.00 in0.0 mm 0.00 in0.0 mm 0.00 in0.0 mm
02:26 AM 34.2°F1.2°C 30.5°F-0.8°C 86% 5.0 mph NE8.0 kmh NE 12.0 mph19.3 kmh 29.82 in1009.8 mb 0.00 in0.0 mm 0.00 in0.0 mm 0.00 in0.0 mm
02:31 AM 34.1°F1.2°C 30.4°F-0.9°C 86% 5.0 mph ENE8.0 kmh ENE 10.0 mph16.1 kmh 29.82 in1009.8 mb 0.00 in0.0 mm 0.00 in0.0 mm 0.00 in0.0 mm
02:36 AM 34.1°F1.2°C 30.4°F-0.9°C 86% 2.0 mph N3.2 kmh N 10.0 mph16.1 kmh 29.82 in1009.8 mb 0.00 in0.0 mm 0.00 in0.0 mm 0.00 in0.0 mm
02:41 AM 34.0°F1.1°C 30.3°F-0.9°C 86% 3.0 mph NNE4.8 kmh NNE 10.0 mph16.1 kmh 29.82 in1009.8 mb 0.00 in0.0 mm 0.00 in0.0 mm 0.00 in0.0 mm
02:46 AM 33.9°F1.1°C 30.5°F-0.8°C 87% 7.0 mph NNW11.3 kmh NNW 12.0 mph19.3 kmh 29.83 in1010.2 mb 0.00 in0.0 mm 0.00 in0.0 mm 0.00 in0.0 mm
02:51 AM 33.8°F1.0°C 30.4°F-0.9°C 87% 1.0 mph N1.6 kmh N 12.0 mph19.3 kmh 29.83 in1010.2 mb 0.00 in0.0 mm 0.00 in0.0 mm 0.00 in0.0 mm
02:56 AM 33.7°F0.9°C 30.3°F-0.9°C 87% 5.0 mph NNW8.0 kmh NNW 12.0 mph19.3 kmh 29.83 in1010.2 mb 0.00 in0.0 mm 0.00 in0.0 mm 0.00 in0.0 mm
03:01 AM 33.6°F0.9°C 30.2°F-1.0°C 87% 5.0 mph NNE8.0 kmh NNE 12.0 mph19.3 kmh 29.84 in1010.5 mb 0.00 in0.0 mm 0.00 in0.0 mm 0.00 in0.0 mm
03:06 AM 33.5°F0.8°C 30.1°F-1.1°C 87% 3.0 mph NNE4.8 kmh NNE 11.0 mph17.7 kmh 29.84 in1010.5 mb 0.00 in0.0 mm 0.00 in0.0 mm 0.00 in0.0 mm
03:11 AM 33.4°F0.8°C 30.0°F-1.1°C 87% 4.0 mph N6.4 kmh N 11.0 mph17.7 kmh 29.84 in1010.5 mb 0.00 in0.0 mm 0.00 in0.0 mm 0.00 in0.0 mm
03:16 AM 33.3°F0.7°C 29.9°F-1.2°C 87% 8.0 mph NNE12.9 kmh NNE 12.0 mph19.3 kmh 29.85 in1010.8 mb 0.00 in0.0 mm 0.00 in0.0 mm 0.00 in0.0 mm
03:21 AM 33.2°F0.7°C 29.8°F-1.2°C 87% 2.0 mph ENE3.2 kmh ENE 12.0 mph19.3 kmh 29.85 in1010.8 mb 0.00 in0.0 mm 0.00 in0.0 mm 0.00 in0.0 mm
03:26 AM 33.2°F0.7°C 29.8°F-1.2°C 87% 9.0 mph NE14.5 kmh NE 12.0 mph19.3 kmh 29.85 in1010.8 mb 0.00 in0.0 mm 0.00 in0.0 mm 0.00 in0.0 mm
03:31 AM 33.3°F0.7°C 29.9°F-1.2°C 87% 7.0 mph NNE11.3 kmh NNE 12.0 mph19.3 kmh 29.85 in1010.8 mb 0.00 in0.0 mm 0.00 in0.0 mm 0.00 in0.0 mm
03:36 AM 33.2°F0.7°C 29.8°F-1.2°C 87% 2.0 mph N3.2 kmh N 11.0 mph17.7 kmh 29.85 in1010.8 mb 0.00 in0.0 mm 0.00 in0.0 mm 0.01 in0.3 mm
03:41 AM 33.2°F0.7°C 29.8°F-1.2°C 87% 1.0 mph NNE1.6 kmh NNE 11.0 mph17.7 kmh 29.85 in1010.8 mb 0.00 in0.0 mm 0.00 in0.0 mm 0.01 in0.3 mm
03:46 AM 33.2°F0.7°C 29.8°F-1.2°C 87% 3.0 mph NNE4.8 kmh NNE 9.0 mph14.5 kmh 29.86 in1011.2 mb 0.00 in0.0 mm 0.00 in0.0 mm 0.01 in0.3 mm
03:51 AM 33.2°F0.7°C 29.8°F-1.2°C 87% 5.0 mph NNE8.0 kmh NNE 9.0 mph14.5 kmh 29.86 in1011.2 mb 0.00 in0.0 mm 0.00 in0.0 mm 0.01 in0.3 mm
03:56 AM 33.2°F0.7°C 29.8°F-1.2°C 87% 2.0 mph N3.2 kmh N 9.0 mph14.5 kmh 29.86 in1011.2 mb 0.00 in0.0 mm 0.00 in0.0 mm 0.02 in0.5 mm
04:01 AM 33.1°F0.6°C 29.7°F-1.3°C 87% 3.0 mph N4.8 kmh N 9.0 mph14.5 kmh 29.86 in1011.2 mb 0.00 in0.0 mm 0.00 in0.0 mm 0.02 in0.5 mm
04:06 AM 33.1°F0.6°C 29.7°F-1.3°C 87% 4.0 mph NE6.4 kmh NE 10.0 mph16.1 kmh 29.87 in1011.5 mb 0.00 in0.0 mm 0.00 in0.0 mm 0.02 in0.5 mm
04:11 AM 33.0°F0.6°C 29.6°F-1.3°C 87% 4.0 mph N6.4 kmh N 10.0 mph16.1 kmh 29.87 in1011.5 mb 0.00 in0.0 mm 0.00 in0.0 mm 0.02 in0.5 mm
04:16 AM 33.0°F0.6°C 29.6°F-1.3°C 87% 3.0 mph N4.8 kmh N 10.0 mph16.1 kmh 29.87 in1011.5 mb 0.00 in0.0 mm 0.00 in0.0 mm 0.02 in0.5 mm
04:21 AM 32.9°F0.5°C 29.5°F-1.4°C 87% 2.0 mph NNE3.2 kmh NNE 10.0 mph16.1 kmh 29.87 in1011.5 mb 0.00 in0.0 mm 0.00 in0.0 mm 0.02 in0.5 mm
04:26 AM 32.9°F0.5°C 29.5°F-1.4°C 87% 3.0 mph 4.8 kmh 12.0 mph19.3 kmh 29.88 in1011.9 mb 0.00 in0.0 mm 0.00 in0.0 mm 0.02 in0.5 mm
04:31 AM 32.9°F0.5°C 29.5°F-1.4°C 87% 4.0 mph N6.4 kmh N 12.0 mph19.3 kmh 29.88 in1011.9 mb 0.00 in0.0 mm 0.00 in0.0 mm 0.02 in0.5 mm
04:36 AM 32.9°F0.5°C 29.8°F-1.2°C 88% 2.0 mph N3.2 kmh N 12.0 mph19.3 kmh 29.88 in1011.9 mb 0.00 in0.0 mm 0.00 in0.0 mm 0.02 in0.5 mm
04:41 AM 32.8°F0.4°C 29.7°F-1.3°C 88% 3.0 mph NW4.8 kmh NW 12.0 mph19.3 kmh 29.88 in1011.9 mb 0.00 in0.0 mm 0.00 in0.0 mm 0.03 in0.8 mm
04:46 AM 32.9°F0.5°C 29.8°F-1.2°C 88% 2.0 mph NW3.2 kmh NW 13.0 mph20.9 kmh 29.88 in1011.9 mb 0.00 in0.0 mm 0.00 in0.0 mm 0.03 in0.8 mm
04:51 AM 32.9°F0.5°C 29.8°F-1.2°C 88% 8.0 mph N12.9 kmh N 13.0 mph20.9 kmh 29.88 in1011.9 mb 0.00 in0.0 mm 0.00 in0.0 mm 0.03 in0.8 mm
04:56 AM 32.9°F0.5°C 29.8°F-1.2°C 88% 4.0 mph NNW6.4 kmh NNW 13.0 mph20.9 kmh 29.89 in1012.2 mb 0.04 in1.0 mm 0.48 in12.2 mm 0.04 in1.0 mm
05:01 AM 32.9°F0.5°C 29.8°F-1.2°C 88% 4.0 mph N6.4 kmh N 13.0 mph20.9 kmh 29.89 in1012.2 mb 0.04 in1.0 mm 0.00 in0.0 mm 0.04 in1.0 mm
05:06 AM 32.9°F0.5°C 29.8°F-1.2°C 88% 3.0 mph NNE4.8 kmh NNE 10.0 mph16.1 kmh 29.89 in1012.2 mb 0.04 in1.0 mm 0.00 in0.0 mm 0.04 in1.0 mm
05:11 AM 32.9°F0.5°C 29.8°F-1.2°C 88% 4.0 mph NNE6.4 kmh NNE 11.0 mph17.7 kmh 29.89 in1012.2 mb 0.00 in0.0 mm 0.00 in0.0 mm 0.04 in1.0 mm
05:16 AM 32.8°F0.4°C 29.7°F-1.3°C 88% 7.0 mph NW11.3 kmh NW 12.0 mph19.3 kmh 29.90 in1012.5 mb 0.00 in0.0 mm 0.00 in0.0 mm 0.04 in1.0 mm
05:21 AM 32.8°F0.4°C 29.7°F-1.3°C 88% 5.0 mph 8.0 kmh 12.0 mph19.3 kmh 29.90 in1012.5 mb 0.00 in0.0 mm 0.00 in0.0 mm 0.04 in1.0 mm
05:26 AM 32.9°F0.5°C 29.8°F-1.2°C 88% 3.0 mph NNW4.8 kmh NNW 13.0 mph20.9 kmh 29.91 in1012.9 mb 0.00 in0.0 mm 0.00 in0.0 mm 0.04 in1.0 mm
05:31 AM 32.9°F0.5°C 29.8°F-1.2°C 88% 7.0 mph 11.3 kmh 13.0 mph20.9 kmh 29.91 in1012.9 mb 0.00 in0.0 mm 0.00 in0.0 mm 0.05 in1.3 mm
05:36 AM 32.9°F0.5°C 29.8°F-1.2°C 88% 6.0 mph N9.7 kmh N 13.0 mph20.9 kmh 29.91 in1012.9 mb 0.00 in0.0 mm 0.00 in0.0 mm 0.05 in1.3 mm
05:41 AM 32.8°F0.4°C 29.7°F-1.3°C 88% 7.0 mph NE11.3 kmh NE 13.0 mph20.9 kmh 29.91 in1012.9 mb 0.00 in0.0 mm 0.00 in0.0 mm 0.05 in1.3 mm
05:46 AM 32.7°F0.4°C 29.6°F-1.3°C 88% 2.0 mph NNW3.2 kmh NNW 13.0 mph20.9 kmh 29.91 in1012.9 mb 0.00 in0.0 mm 0.00 in0.0 mm 0.05 in1.3 mm
05:51 AM 32.7°F0.4°C 29.6°F-1.3°C 88% 4.0 mph N6.4 kmh N 13.0 mph20.9 kmh 29.92 in1013.2 mb 0.00 in0.0 mm 0.00 in0.0 mm 0.05 in1.3 mm
05:56 AM 32.7°F0.4°C 29.6°F-1.3°C 88% 4.0 mph NNW6.4 kmh NNW 10.0 mph16.1 kmh 29.92 in1013.2 mb 0.00 in0.0 mm 0.00 in0.0 mm 0.05 in1.3 mm
06:01 AM 32.8°F0.4°C 29.7°F-1.3°C 88% 1.0 mph N1.6 kmh N 10.0 mph16.1 kmh 29.92 in1013.2 mb 0.00 in0.0 mm 0.00 in0.0 mm 0.06 in1.5 mm
06:06 AM 32.8°F0.4°C 29.7°F-1.3°C 88% 8.0 mph NE12.9 kmh NE 12.0 mph19.3 kmh 29.93 in1013.5 mb 0.00 in0.0 mm 0.00 in0.0 mm 0.06 in1.5 mm
06:11 AM 32.8°F0.4°C 29.7°F-1.3°C 88% 6.0 mph NNE9.7 kmh NNE 12.0 mph19.3 kmh 29.93 in1013.5 mb 0.00 in0.0 mm 0.00 in0.0 mm 0.06 in1.5 mm
06:16 AM 32.7°F0.4°C 29.6°F-1.3°C 88% 5.0 mph N8.0 kmh N 12.0 mph19.3 kmh 29.94 in1013.9 mb 0.00 in0.0 mm 0.00 in0.0 mm 0.06 in1.5 mm
06:21 AM 32.6°F0.3°C 29.5°F-1.4°C 88% Calm Calm 12.0 mph19.3 kmh 29.94 in1013.9 mb 0.00 in0.0 mm 0.00 in0.0 mm 0.06 in1.5 mm
06:26 AM 32.6°F0.3°C 29.5°F-1.4°C 88% 4.0 mph WNW6.4 kmh WNW 8.0 mph12.9 kmh 29.94 in1013.9 mb 0.00 in0.0 mm 0.00 in0.0 mm 0.06 in1.5 mm
06:31 AM 32.7°F0.4°C 29.6°F-1.3°C 88% 5.0 mph NW8.0 kmh NW 10.0 mph16.1 kmh 29.94 in1013.9 mb 0.00 in0.0 mm 0.00 in0.0 mm 0.06 in1.5 mm
06:36 AM 32.7°F0.4°C 29.6°F-1.3°C 88% 1.0 mph N1.6 kmh N 11.0 mph17.7 kmh 29.95 in1014.2 mb 0.00 in0.0 mm 0.00 in0.0 mm 0.06 in1.5 mm
06:41 AM 32.8°F0.4°C 29.7°F-1.3°C 88% 7.0 mph N11.3 kmh N 11.0 mph17.7 kmh 29.95 in1014.2 mb 0.00 in0.0 mm 0.00 in0.0 mm 0.06 in1.5 mm
06:46 AM 32.8°F0.4°C 29.7°F-1.3°C 88% 3.0 mph N4.8 kmh N 11.0 mph17.7 kmh 29.96 in1014.6 mb 0.00 in0.0 mm 0.00 in0.0 mm 0.06 in1.5 mm
06:51 AM 32.9°F0.5°C 29.8°F-1.2°C 88% 9.0 mph NE14.5 kmh NE 12.0 mph19.3 kmh 29.96 in1014.6 mb 0.00 in0.0 mm 0.00 in0.0 mm 0.06 in1.5 mm
06:56 AM 33.0°F0.6°C 29.9°F-1.2°C 88% 3.0 mph N4.8 kmh N 12.0 mph19.3 kmh 29.97 in1014.9 mb 0.00 in0.0 mm 0.00 in0.0 mm 0.06 in1.5 mm
07:01 AM 33.1°F0.6°C 30.0°F-1.1°C 88% 3.0 mph N4.8 kmh N 12.0 mph19.3 kmh 29.97 in1014.9 mb 0.00 in0.0 mm 0.00 in0.0 mm 0.06 in1.5 mm
07:06 AM 33.2°F0.7°C 30.1°F-1.1°C 88% 8.0 mph N12.9 kmh N 12.0 mph19.3 kmh 29.97 in1014.9 mb 0.00 in0.0 mm 0.00 in0.0 mm 0.06 in1.5 mm
07:11 AM 33.3°F0.7°C 30.2°F-1.0°C 88% 3.0 mph NW4.8 kmh NW 18.0 mph29.0 kmh 29.98 in1015.2 mb 0.00 in0.0 mm 0.00 in0.0 mm 0.06 in1.5 mm
07:16 AM 33.3°F0.7°C 30.2°F-1.0°C 88% 6.0 mph NNW9.7 kmh NNW 18.0 mph29.0 kmh 29.98 in1015.2 mb 0.00 in0.0 mm 0.00 in0.0 mm 0.06 in1.5 mm
07:21 AM 33.4°F0.8°C 30.0°F-1.1°C 87% 2.0 mph NW3.2 kmh NW 18.0 mph29.0 kmh 29.98 in1015.2 mb 0.00 in0.0 mm 0.00 in0.0 mm 0.06 in1.5 mm
07:26 AM 33.5°F0.8°C 30.1°F-1.1°C 87% 6.0 mph N9.7 kmh N 18.0 mph29.0 kmh 29.99 in1015.6 mb 0.00 in0.0 mm 0.00 in0.0 mm 0.06 in1.5 mm
07:31 AM 33.6°F0.9°C 30.2°F-1.0°C 87% 5.0 mph 8.0 kmh 15.0 mph24.1 kmh 29.99 in1015.6 mb 0.00 in0.0 mm 0.00 in0.0 mm 0.06 in1.5 mm
07:36 AM 33.7°F0.9°C 30.3°F-0.9°C 87% 8.0 mph NW12.9 kmh NW 15.0 mph24.1 kmh 29.99 in1015.6 mb 0.00 in0.0 mm 0.00 in0.0 mm 0.06 in1.5 mm
07:41 AM 33.7°F0.9°C 30.0°F-1.1°C 86% 6.0 mph NNW9.7 kmh NNW 14.0 mph22.5 kmh 30.00 in1015.9 mb 0.00 in0.0 mm 0.00 in0.0 mm 0.06 in1.5 mm
07:46 AM 33.8°F1.0°C 30.1°F-1.1°C 86% 6.0 mph N9.7 kmh N 14.0 mph22.5 kmh 30.00 in1015.9 mb 0.00 in0.0 mm 0.00 in0.0 mm 0.06 in1.5 mm
07:51 AM 34.0°F1.1°C 30.0°F-1.1°C 85% 4.0 mph NNW6.4 kmh NNW 14.0 mph22.5 kmh 30.00 in1015.9 mb 0.00 in0.0 mm 0.00 in0.0 mm 0.06 in1.5 mm
07:56 AM 34.1°F1.2°C 30.1°F-1.1°C 85% 6.0 mph NW9.7 kmh NW 14.0 mph22.5 kmh 30.00 in1015.9 mb 0.00 in0.0 mm 0.00 in0.0 mm 0.06 in1.5 mm
08:01 AM 34.3°F1.3°C 30.0°F-1.1°C 84% 3.0 mph NW4.8 kmh NW 13.0 mph20.9 kmh 30.00 in1015.9 mb 0.00 in0.0 mm 0.00 in0.0 mm 0.06 in1.5 mm
08:06 AM 34.6°F1.4°C 30.0°F-1.1°C 83% 4.0 mph NW6.4 kmh NW 13.0 mph20.9 kmh 30.01 in1016.3 mb 0.00 in0.0 mm 0.00 in0.0 mm 0.06 in1.5 mm
08:11 AM 34.9°F1.6°C 30.3°F-0.9°C 83% 4.0 mph N6.4 kmh N 12.0 mph19.3 kmh 30.01 in1016.3 mb 0.00 in0.0 mm 0.00 in0.0 mm 0.06 in1.5 mm
08:16 AM 35.1°F1.7°C 30.1°F-1.1°C 82% 6.0 mph NNW9.7 kmh NNW 12.0 mph19.3 kmh 30.02 in1016.6 mb 0.00 in0.0 mm 0.00 in0.0 mm 0.06 in1.5 mm
08:21 AM 35.2°F1.8°C 30.2°F-1.0°C 82% 3.0 mph 4.8 kmh 9.0 mph14.5 kmh 30.02 in1016.6 mb 0.00 in0.0 mm 0.00 in0.0 mm 0.06 in1.5 mm
08:26 AM 35.3°F1.8°C 30.3°F-0.9°C 82% 4.0 mph NW6.4 kmh NW 14.0 mph22.5 kmh 30.02 in1016.6 mb 0.00 in0.0 mm 0.00 in0.0 mm 0.06 in1.5 mm
08:31 AM 35.3°F1.8°C 30.0°F-1.1°C 81% 4.0 mph N6.4 kmh N 14.0 mph22.5 kmh 30.03 in1016.9 mb 0.00 in0.0 mm 0.00 in0.0 mm 0.06 in1.5 mm
08:36 AM 35.4°F1.9°C 30.1°F-1.1°C 81% 6.0 mph NW9.7 kmh NW 16.0 mph25.7 kmh 30.03 in1016.9 mb 0.00 in0.0 mm 0.00 in0.0 mm 0.06 in1.5 mm
08:41 AM 35.6°F2.0°C 30.3°F-0.9°C 81% 3.0 mph NNW4.8 kmh NNW 16.0 mph25.7 kmh 30.03 in1016.9 mb 0.00 in0.0 mm 0.00 in0.0 mm 0.06 in1.5 mm
08:46 AM 36.0°F2.2°C 30.7°F-0.7°C 81% 4.0 mph WNW6.4 kmh WNW 16.0 mph25.7 kmh 30.03 in1016.9 mb 0.00 in0.0 mm 0.00 in0.0 mm 0.06 in1.5 mm
08:51 AM 36.3°F2.4°C 30.7°F-0.7°C 80% 12.0 mph WNW19.3 kmh WNW 17.0 mph27.4 kmh 30.04 in1017.3 mb 0.00 in0.0 mm 0.00 in0.0 mm 0.06 in1.5 mm
08:56 AM 36.5°F2.5°C 30.9°F-0.6°C 80% 9.0 mph WNW14.5 kmh WNW 17.0 mph27.4 kmh 30.04 in1017.3 mb 0.00 in0.0 mm 0.00 in0.0 mm 0.06 in1.5 mm
09:01 AM 36.7°F2.6°C 31.1°F-0.5°C 80% 8.0 mph N12.9 kmh N 17.0 mph27.4 kmh 30.05 in1017.6 mb 0.00 in0.0 mm 0.00 in0.0 mm 0.06 in1.5 mm
09:06 AM 37.4°F3.0°C 31.4°F-0.3°C 79% 7.0 mph NNW11.3 kmh NNW 21.0 mph33.8 kmh 30.05 in1017.6 mb 0.00 in0.0 mm 0.00 in0.0 mm 0.06 in1.5 mm
09:11 AM 37.4°F3.0°C 31.4°F-0.3°C 79% 7.0 mph NW11.3 kmh NW 21.0 mph33.8 kmh 30.05 in1017.6 mb 0.00 in0.0 mm 0.00 in0.0 mm 0.06 in1.5 mm
09:16 AM 37.3°F2.9°C 31.0°F-0.6°C 78% 8.0 mph WNW12.9 kmh WNW 21.0 mph33.8 kmh 30.06 in1017.9 mb 0.00 in0.0 mm 0.00 in0.0 mm 0.06 in1.5 mm
09:21 AM 37.3°F2.9°C 30.7°F-0.7°C 77% 6.0 mph N9.7 kmh N 21.0 mph33.8 kmh 30.06 in1017.9 mb 0.00 in0.0 mm 0.00 in0.0 mm 0.06 in1.5 mm
09:26 AM 37.6°F3.1°C 31.3°F-0.4°C 78% 5.0 mph NNW8.0 kmh NNW 18.0 mph29.0 kmh 30.07 in1018.3 mb 0.00 in0.0 mm 0.00 in0.0 mm 0.06 in1.5 mm
09:31 AM 38.4°F3.6°C 32.1°F0.1°C 78% 9.0 mph NW14.5 kmh NW 18.0 mph29.0 kmh 30.07 in1018.3 mb 0.00 in0.0 mm 0.00 in0.0 mm 0.06 in1.5 mm
09:36 AM 38.4°F3.6°C 30.8°F-0.7°C 74% 4.0 mph N6.4 kmh N 20.0 mph32.2 kmh 30.07 in1018.3 mb 0.00 in0.0 mm 0.00 in0.0 mm 0.06 in1.5 mm
09:41 AM 40.1°F4.5°C 34.1°F1.2°C 79% 6.0 mph NW9.7 kmh NW 20.0 mph32.2 kmh 30.07 in1018.3 mb 0.00 in0.0 mm 0.00 in0.0 mm 0.06 in1.5 mm
09:46 AM 39.2°F4.0°C 30.8°F-0.7°C 72% 8.0 mph NW12.9 kmh NW 20.0 mph32.2 kmh 30.08 in1018.6 mb 0.00 in0.0 mm 0.00 in0.0 mm 0.06 in1.5 mm
09:51 AM 39.4°F4.1°C 32.1°F0.1°C 75% 6.0 mph NW9.7 kmh NW 20.0 mph32.2 kmh 30.08 in1018.6 mb 0.00 in0.0 mm 0.00 in0.0 mm 0.06 in1.5 mm
09:56 AM 39.7°F4.3°C 31.3°F-0.4°C 72% 8.0 mph NW12.9 kmh NW 19.0 mph30.6 kmh 30.08 in1018.6 mb 0.00 in0.0 mm 0.00 in0.0 mm 0.06 in1.5 mm
10:01 AM 39.4°F4.1°C 30.3°F-0.9°C 70% 8.0 mph W12.9 kmh W 19.0 mph30.6 kmh 30.08 in1018.6 mb 0.00 in0.0 mm 0.00 in0.0 mm 0.06 in1.5 mm
10:06 AM 39.0°F3.9°C 29.9°F-1.2°C 70% 7.0 mph WNW11.3 kmh WNW 19.0 mph30.6 kmh 30.09 in1019.0 mb 0.00 in0.0 mm 0.00 in0.0 mm 0.06 in1.5 mm
10:11 AM 38.9°F3.8°C 30.2°F-1.0°C 71% 5.0 mph NW8.0 kmh NW 19.0 mph30.6 kmh 30.09 in1019.0 mb 0.00 in0.0 mm 0.00 in0.0 mm 0.06 in1.5 mm
10:16 AM 38.5°F3.6°C 29.4°F-1.4°C 70% 2.0 mph NW3.2 kmh NW 15.0 mph24.1 kmh 30.09 in1019.0 mb 0.00 in0.0 mm 0.00 in0.0 mm 0.06 in1.5 mm
10:21 AM 38.5°F3.6°C 29.8°F-1.2°C 71% 7.0 mph NW11.3 kmh NW 15.0 mph24.1 kmh 30.09 in1019.0 mb 0.00 in0.0 mm 0.00 in0.0 mm 0.06 in1.5 mm
10:26 AM 38.6°F3.7°C 29.9°F-1.2°C 71% 6.0 mph NW9.7 kmh NW 15.0 mph24.1 kmh 30.10 in1019.3 mb 0.00 in0.0 mm 0.00 in0.0 mm 0.06 in1.5 mm
10:31 AM 38.8°F3.8°C 29.7°F-1.3°C 70% 12.0 mph NW19.3 kmh NW 15.0 mph24.1 kmh 30.10 in1019.3 mb 0.00 in0.0 mm 0.00 in0.0 mm 0.06 in1.5 mm
10:36 AM 38.8°F3.8°C 29.7°F-1.3°C 70% 6.0 mph NW9.7 kmh NW 15.0 mph24.1 kmh 30.11 in1019.6 mb 0.00 in0.0 mm 0.00 in0.0 mm 0.06 in1.5 mm
10:41 AM 38.9°F3.8°C 29.8°F-1.2°C 70% 9.0 mph NW14.5 kmh NW 15.0 mph24.1 kmh 30.11 in1019.6 mb 0.00 in0.0 mm 0.00 in0.0 mm 0.06 in1.5 mm
10:46 AM 38.7°F3.7°C 29.6°F-1.3°C 70% 6.0 mph NW9.7 kmh NW 17.0 mph27.4 kmh 30.11 in1019.6 mb 0.00 in0.0 mm 0.00 in0.0 mm 0.06 in1.5 mm
10:51 AM 39.3°F4.1°C 30.2°F-1.0°C 70% 12.0 mph NNE19.3 kmh NNE 17.0 mph27.4 kmh 30.12 in1020.0 mb 0.00 in0.0 mm 0.00 in0.0 mm 0.06 in1.5 mm
10:56 AM 39.6°F4.2°C 30.5°F-0.8°C 70% 7.0 mph NNW11.3 kmh NNW 17.0 mph27.4 kmh 30.12 in1020.0 mb 0.00 in0.0 mm 0.00 in0.0 mm 0.06 in1.5 mm
11:01 AM 39.6°F4.2°C 30.5°F-0.8°C 70% 9.0 mph NW14.5 kmh NW 18.0 mph29.0 kmh 30.12 in1020.0 mb 0.00 in0.0 mm 0.00 in0.0 mm 0.06 in1.5 mm
11:06 AM 39.5°F4.2°C 30.0°F-1.1°C 69% 15.0 mph WNW24.1 kmh WNW 19.0 mph30.6 kmh 30.13 in1020.3 mb 0.00 in0.0 mm 0.00 in0.0 mm 0.06 in1.5 mm
11:11 AM 39.6°F4.2°C 29.8°F-1.2°C 68% 4.0 mph N6.4 kmh N 19.0 mph30.6 kmh 30.13 in1020.3 mb 0.00 in0.0 mm 0.00 in0.0 mm 0.06 in1.5 mm
11:16 AM 39.8°F4.3°C 29.6°F-1.3°C 67% 7.0 mph NNW11.3 kmh NNW 19.0 mph30.6 kmh 30.13 in1020.3 mb 0.00 in0.0 mm 0.00 in0.0 mm 0.06 in1.5 mm
11:21 AM 40.1°F4.5°C 29.9°F-1.2°C 67% 10.0 mph WNW16.1 kmh WNW 19.0 mph30.6 kmh 30.13 in1020.3 mb 0.00 in0.0 mm 0.00 in0.0 mm 0.06 in1.5 mm
11:26 AM 40.1°F4.5°C 30.2°F-1.0°C 68% 5.0 mph NW8.0 kmh NW 15.0 mph24.1 kmh 30.14 in1020.7 mb 0.00 in0.0 mm 0.00 in0.0 mm 0.06 in1.5 mm
11:31 AM 40.7°F4.8°C 31.5°F-0.3°C 70% 9.0 mph WNW14.5 kmh WNW 15.0 mph24.1 kmh 30.14 in1020.7 mb 0.00 in0.0 mm 0.00 in0.0 mm 0.06 in1.5 mm
11:36 AM 40.8°F4.9°C 30.5°F-0.8°C 67% 9.0 mph NW14.5 kmh NW 20.0 mph32.2 kmh 30.14 in1020.7 mb 0.00 in0.0 mm 0.00 in0.0 mm 0.06 in1.5 mm
11:41 AM 40.1°F4.5°C 29.9°F-1.2°C 67% 13.0 mph W20.9 kmh W 21.0 mph33.8 kmh 30.14 in1020.7 mb 0.00 in0.0 mm 0.00 in0.0 mm 0.06 in1.5 mm
11:46 AM 40.0°F4.4°C 29.4°F-1.4°C 66% 12.0 mph WNW19.3 kmh WNW 21.0 mph33.8 kmh 30.15 in1021.0 mb 0.00 in0.0 mm 0.00 in0.0 mm 0.06 in1.5 mm
11:51 AM 40.1°F4.5°C 29.5°F-1.4°C 66% 7.0 mph NW11.3 kmh NW 21.0 mph33.8 kmh 30.15 in1021.0 mb 0.00 in0.0 mm 0.00 in0.0 mm 0.06 in1.5 mm
11:56 AM 41.0°F5.0°C 30.7°F-0.7°C 67% 5.0 mph NNW8.0 kmh NNW 21.0 mph33.8 kmh 30.15 in1021.0 mb 0.00 in0.0 mm 0.00 in0.0 mm 0.06 in1.5 mm
12:01 PM 41.5°F5.3°C 30.8°F-0.7°C 66% 4.0 mph NW6.4 kmh NW 17.0 mph27.4 kmh 30.15 in1021.0 mb 0.00 in0.0 mm 0.00 in0.0 mm 0.06 in1.5 mm
12:06 PM 41.9°F5.5°C 31.6°F-0.2°C 67% 6.0 mph N9.7 kmh N 17.0 mph27.4 kmh 30.15 in1021.0 mb 0.00 in0.0 mm 0.00 in0.0 mm 0.06 in1.5 mm
12:11 PM 42.0°F5.6°C 30.9°F-0.6°C 65% 4.0 mph NW6.4 kmh NW 14.0 mph22.5 kmh 30.15 in1021.0 mb 0.00 in0.0 mm 0.00 in0.0 mm 0.06 in1.5 mm
12:16 PM 42.0°F5.6°C 30.9°F-0.6°C 65% 7.0 mph NW11.3 kmh NW 18.0 mph29.0 kmh 30.15 in1021.0 mb 0.00 in0.0 mm 0.00 in0.0 mm 0.06 in1.5 mm
12:21 PM 42.7°F5.9°C 31.6°F-0.2°C 65% 6.0 mph NNW9.7 kmh NNW 18.0 mph29.0 kmh 30.15 in1021.0 mb 0.00 in0.0 mm 0.00 in0.0 mm 0.06 in1.5 mm
12:26 PM 42.7°F5.9°C 30.8°F-0.7°C 63% 9.0 mph WNW14.5 kmh WNW 18.0 mph29.0 kmh 30.15 in1021.0 mb 0.00 in0.0 mm 0.00 in0.0 mm 0.06 in1.5 mm
12:31 PM 41.9°F5.5°C 30.8°F-0.7°C 65% 4.0 mph NW6.4 kmh NW 18.0 mph29.0 kmh 30.16 in1021.3 mb 0.00 in0.0 mm 0.00 in0.0 mm 0.06 in1.5 mm
12:36 PM 42.5°F5.8°C 31.8°F-0.1°C 66% 5.0 mph NW8.0 kmh NW 13.0 mph20.9 kmh 30.16 in1021.3 mb 0.00 in0.0 mm 0.00 in0.0 mm 0.06 in1.5 mm
12:41 PM 42.9°F6.1°C 31.4°F-0.3°C 64% 9.0 mph NW14.5 kmh NW 14.0 mph22.5 kmh 30.16 in1021.3 mb 0.00 in0.0 mm 0.00 in0.0 mm 0.06 in1.5 mm
12:46 PM 41.9°F5.5°C 30.4°F-0.9°C 64% 9.0 mph NW14.5 kmh NW 14.0 mph22.5 kmh 30.16 in1021.3 mb 0.00 in0.0 mm 0.00 in0.0 mm 0.06 in1.5 mm
12:51 PM 42.7°F5.9°C 32.0°F0.0°C 66% 8.0 mph WNW12.9 kmh WNW 14.0 mph22.5 kmh 30.16 in1021.3 mb 0.00 in0.0 mm 0.00 in0.0 mm 0.06 in1.5 mm
12:56 PM 42.6°F5.9°C 31.1°F-0.5°C 64% 4.0 mph NW6.4 kmh NW 14.0 mph22.5 kmh 30.16 in1021.3 mb 0.00 in0.0 mm 0.00 in0.0 mm 0.06 in1.5 mm
01:01 PM 42.1°F5.6°C 30.2°F-1.0°C 63% 6.0 mph WNW9.7 kmh WNW 13.0 mph20.9 kmh 30.16 in1021.3 mb 0.00 in0.0 mm 0.00 in0.0 mm 0.06 in1.5 mm
01:06 PM 42.3°F5.7°C 30.4°F-0.9°C 63% 11.0 mph W17.7 kmh W 13.0 mph20.9 kmh 30.17 in1021.7 mb 0.00 in0.0 mm 0.00 in0.0 mm 0.06 in1.5 mm
01:11 PM 43.6°F6.4°C 32.8°F0.4°C 66% 5.0 mph WNW8.0 kmh WNW 12.0 mph19.3 kmh 30.16 in1021.3 mb 0.00 in0.0 mm 0.00 in0.0 mm 0.06 in1.5 mm
01:16 PM 44.3°F6.8°C 32.7°F0.4°C 64% 5.0 mph N8.0 kmh N 12.0 mph19.3 kmh 30.17 in1021.7 mb 0.00 in0.0 mm 0.00 in0.0 mm 0.06 in1.5 mm
01:21 PM 43.6°F6.4°C 30.8°F-0.7°C 61% 8.0 mph NW12.9 kmh NW 11.0 mph17.7 kmh 30.17 in1021.7 mb 0.00 in0.0 mm 0.00 in0.0 mm 0.06 in1.5 mm
01:26 PM 43.5°F6.4°C 30.7°F-0.7°C 61% 4.0 mph WNW6.4 kmh WNW 15.0 mph24.1 kmh 30.17 in1021.7 mb 0.00 in0.0 mm 0.00 in0.0 mm 0.06 in1.5 mm
01:31 PM 43.9°F6.6°C 31.5°F-0.3°C 62% 8.0 mph W12.9 kmh W 15.0 mph24.1 kmh 30.17 in1021.7 mb 0.00 in0.0 mm 0.00 in0.0 mm 0.06 in1.5 mm
01:36 PM 43.6°F6.4°C 29.9°F-1.2°C 59% 7.0 mph WNW11.3 kmh WNW 16.0 mph25.7 kmh 30.17 in1021.7 mb 0.00 in0.0 mm 0.00 in0.0 mm 0.06 in1.5 mm
01:41 PM 43.3°F6.3°C 30.5°F-0.8°C 61% 4.0 mph WNW6.4 kmh WNW 16.0 mph25.7 kmh 30.17 in1021.7 mb 0.00 in0.0 mm 0.00 in0.0 mm 0.06 in1.5 mm
01:46 PM 44.3°F6.8°C 31.0°F-0.6°C 60% 7.0 mph N11.3 kmh N 16.0 mph25.7 kmh 30.17 in1021.7 mb 0.00 in0.0 mm 0.00 in0.0 mm 0.06 in1.5 mm
01:51 PM 44.8°F7.1°C 31.5°F-0.3°C 60% 3.0 mph WNW4.8 kmh WNW 16.0 mph25.7 kmh 30.17 in1021.7 mb 0.00 in0.0 mm 0.00 in0.0 mm 0.06 in1.5 mm
01:56 PM 44.7°F7.1°C 31.0°F-0.6°C 59% 5.0 mph NNW8.0 kmh NNW 12.0 mph19.3 kmh 30.17 in1021.7 mb 0.00 in0.0 mm 0.00 in0.0 mm 0.06 in1.5 mm
02:01 PM 44.8°F7.1°C 31.9°F-0.1°C 61% 9.0 mph NW14.5 kmh NW 12.0 mph19.3 kmh 30.17 in1021.7 mb 0.00 in0.0 mm 0.00 in0.0 mm 0.06 in1.5 mm
02:06 PM 44.8°F7.1°C 31.1°F-0.5°C 59% 6.0 mph NW9.7 kmh NW 12.0 mph19.3 kmh 30.17 in1021.7 mb 0.00 in0.0 mm 0.00 in0.0 mm 0.06 in1.5 mm
02:11 PM 45.1°F7.3°C 31.8°F-0.1°C 60% 11.0 mph NW17.7 kmh NW 15.0 mph24.1 kmh 30.17 in1021.7 mb 0.00 in0.0 mm 0.00 in0.0 mm 0.06 in1.5 mm
02:16 PM 44.6°F7.0°C 30.4°F-0.9°C 58% 7.0 mph NW11.3 kmh NW 16.0 mph25.7 kmh 30.17 in1021.7 mb 0.00 in0.0 mm 0.00 in0.0 mm 0.06 in1.5 mm
02:21 PM 44.7°F7.1°C 31.0°F-0.6°C 59% 6.0 mph NW9.7 kmh NW 16.0 mph25.7 kmh 30.17 in1021.7 mb 0.00 in0.0 mm 0.00 in0.0 mm 0.06 in1.5 mm
02:26 PM 44.7°F7.1°C 30.1°F-1.1°C 57% 4.0 mph NW6.4 kmh NW 16.0 mph25.7 kmh 30.17 in1021.7 mb 0.00 in0.0 mm 0.00 in0.0 mm 0.06 in1.5 mm
02:31 PM 44.6°F7.0°C 30.0°F-1.1°C 57% 7.0 mph NW11.3 kmh NW 16.0 mph25.7 kmh 30.17 in1021.7 mb 0.00 in0.0 mm 0.00 in0.0 mm 0.06 in1.5 mm
02:36 PM 45.5°F7.5°C 30.4°F-0.9°C 56% 11.0 mph WNW17.7 kmh WNW 15.0 mph24.1 kmh 30.17 in1021.7 mb 0.00 in0.0 mm 0.00 in0.0 mm 0.06 in1.5 mm
02:41 PM 45.4°F7.4°C 29.8°F-1.2°C 55% 7.0 mph WSW11.3 kmh WSW 15.0 mph24.1 kmh 30.17 in1021.7 mb 0.00 in0.0 mm 0.00 in0.0 mm 0.06 in1.5 mm
02:46 PM 45.4°F7.4°C 30.3°F-0.9°C 56% 7.0 mph NW11.3 kmh NW 15.0 mph24.1 kmh 30.17 in1021.7 mb 0.00 in0.0 mm 0.00 in0.0 mm 0.06 in1.5 mm
02:51 PM 45.9°F7.7°C 30.3°F-0.9°C 55% 6.0 mph NW9.7 kmh NW 15.0 mph24.1 kmh 30.18 in1022.0 mb 0.00 in0.0 mm 0.00 in0.0 mm 0.06 in1.5 mm
02:56 PM 45.3°F7.4°C 29.3°F-1.5°C 54% 7.0 mph WNW11.3 kmh WNW 13.0 mph20.9 kmh 30.17 in1021.7 mb 0.00 in0.0 mm 0.00 in0.0 mm 0.06 in1.5 mm
03:01 PM 45.6°F7.6°C 30.5°F-0.8°C 56% 6.0 mph NW9.7 kmh NW 13.0 mph20.9 kmh 30.17 in1021.7 mb 0.00 in0.0 mm 0.00 in0.0 mm 0.06 in1.5 mm
03:06 PM 45.9°F7.7°C 30.3°F-0.9°C 55% 9.0 mph WNW14.5 kmh WNW 13.0 mph20.9 kmh 30.17 in1021.7 mb 0.00 in0.0 mm 0.00 in0.0 mm 0.06 in1.5 mm
03:11 PM 46.4°F8.0°C 31.7°F-0.2°C 57% 5.0 mph WSW8.0 kmh WSW 13.0 mph20.9 kmh 30.18 in1022.0 mb 0.00 in0.0 mm 0.00 in0.0 mm 0.06 in1.5 mm
03:16 PM 46.4°F8.0°C 30.3°F-0.9°C 54% 8.0 mph WNW12.9 kmh WNW 14.0 mph22.5 kmh 30.17 in1021.7 mb 0.00 in0.0 mm 0.00 in0.0 mm 0.06 in1.5 mm
03:21 PM 46.2°F7.9°C 31.5°F-0.3°C 57% 3.0 mph NW4.8 kmh NW 14.0 mph22.5 kmh 30.18 in1022.0 mb 0.00 in0.0 mm 0.00 in0.0 mm 0.06 in1.5 mm
03:26 PM 46.1°F7.8°C 31.4°F-0.3°C 57% 10.0 mph WNW16.1 kmh WNW 14.0 mph22.5 kmh 30.18 in1022.0 mb 0.00 in0.0 mm 0.00 in0.0 mm 0.06 in1.5 mm
03:31 PM 46.1°F7.8°C 30.9°F-0.6°C 56% 10.0 mph WNW16.1 kmh WNW 14.0 mph22.5 kmh 30.17 in1021.7 mb 0.00 in0.0 mm 0.00 in0.0 mm 0.06 in1.5 mm
03:36 PM 46.1°F7.8°C 30.5°F-0.8°C 55% 7.0 mph WNW11.3 kmh WNW 14.0 mph22.5 kmh 30.17 in1021.7 mb 0.00 in0.0 mm 0.00 in0.0 mm 0.06 in1.5 mm
03:41 PM 46.0°F7.8°C 31.8°F-0.1°C 58% 5.0 mph NNW8.0 kmh NNW 14.0 mph22.5 kmh 30.17 in1021.7 mb 0.00 in0.0 mm 0.00 in0.0 mm 0.06 in1.5 mm
03:46 PM 45.7°F7.6°C 30.6°F-0.8°C 56% 8.0 mph WNW12.9 kmh WNW 14.0 mph22.5 kmh 30.18 in1022.0 mb 0.00 in0.0 mm 0.00 in0.0 mm 0.06 in1.5 mm
03:51 PM 45.6°F7.6°C 30.5°F-0.8°C 56% 5.0 mph WNW8.0 kmh WNW 12.0 mph19.3 kmh 30.18 in1022.0 mb 0.00 in0.0 mm 0.00 in0.0 mm 0.06 in1.5 mm
03:56 PM 45.4°F7.4°C 29.8°F-1.2°C 55% 5.0 mph WNW8.0 kmh WNW 13.0 mph20.9 kmh 30.18 in1022.0 mb 0.00 in0.0 mm 0.00 in0.0 mm 0.06 in1.5 mm
04:01 PM 45.3°F7.4°C 31.1°F-0.5°C 58% 7.0 mph WNW11.3 kmh WNW 13.0 mph20.9 kmh 30.18 in1022.0 mb 0.00 in0.0 mm 0.00 in0.0 mm 0.06 in1.5 mm
04:06 PM 45.2°F7.3°C 31.0°F-0.6°C 58% 5.0 mph N8.0 kmh N 13.0 mph20.9 kmh 30.19 in1022.4 mb 0.00 in0.0 mm 0.00 in0.0 mm 0.06 in1.5 mm
04:11 PM 45.0°F7.2°C 31.3°F-0.4°C 59% 7.0 mph N11.3 kmh N 13.0 mph20.9 kmh 30.18 in1022.0 mb 0.00 in0.0 mm 0.00 in0.0 mm 0.06 in1.5 mm
04:16 PM 44.8°F7.1°C 30.6°F-0.8°C 58% 5.0 mph NW8.0 kmh NW 9.0 mph14.5 kmh 30.18 in1022.0 mb 0.00 in0.0 mm 0.00 in0.0 mm 0.06 in1.5 mm
04:21 PM 44.8°F7.1°C 31.5°F-0.3°C 60% 5.0 mph NW8.0 kmh NW 11.0 mph17.7 kmh 30.19 in1022.4 mb 0.00 in0.0 mm 0.00 in0.0 mm 0.06 in1.5 mm
04:26 PM 44.7°F7.1°C 31.0°F-0.6°C 59% 7.0 mph NNW11.3 kmh NNW 11.0 mph17.7 kmh 30.19 in1022.4 mb 0.00 in0.0 mm 0.00 in0.0 mm 0.06 in1.5 mm
04:31 PM 44.6°F7.0°C 31.3°F-0.4°C 60% 4.0 mph NNE6.4 kmh NNE 11.0 mph17.7 kmh 30.19 in1022.4 mb 0.00 in0.0 mm 0.00 in0.0 mm 0.06 in1.5 mm
04:36 PM 44.6°F7.0°C 30.9°F-0.6°C 59% 6.0 mph NNE9.7 kmh NNE 11.0 mph17.7 kmh 30.19 in1022.4 mb 0.00 in0.0 mm 0.00 in0.0 mm 0.06 in1.5 mm
04:41 PM 44.3°F6.8°C 30.6°F-0.8°C 59% 5.0 mph NNE8.0 kmh NNE 10.0 mph16.1 kmh 30.19 in1022.4 mb 0.00 in0.0 mm 0.00 in0.0 mm 0.06 in1.5 mm
04:46 PM 44.4°F6.9°C 31.1°F-0.5°C 60% 5.0 mph N8.0 kmh N 10.0 mph16.1 kmh 30.19 in1022.4 mb 0.00 in0.0 mm 0.00 in0.0 mm 0.06 in1.5 mm
04:51 PM 44.5°F6.9°C 30.8°F-0.7°C 59% 4.0 mph NNW6.4 kmh NNW 8.0 mph12.9 kmh 30.20 in1022.7 mb 0.00 in0.0 mm 0.00 in0.0 mm 0.06 in1.5 mm
04:56 PM 44.5°F6.9°C 29.9°F-1.2°C 57% 5.0 mph 8.0 kmh 8.0 mph12.9 kmh 30.20 in1022.7 mb 0.00 in0.0 mm 0.00 in0.0 mm 0.06 in1.5 mm
05:01 PM 44.3°F6.8°C 29.7°F-1.3°C 57% 4.0 mph NNE6.4 kmh NNE 6.0 mph9.7 kmh 30.20 in1022.7 mb 0.00 in0.0 mm 0.00 in0.0 mm 0.06 in1.5 mm
05:06 PM 44.3°F6.8°C 28.8°F-1.8°C 55% 3.0 mph NE4.8 kmh NE 9.0 mph14.5 kmh 30.20 in1022.7 mb 0.00 in0.0 mm 0.00 in0.0 mm 0.06 in1.5 mm
05:11 PM 44.2°F6.8°C 28.7°F-1.8°C 55% 3.0 mph NNE4.8 kmh NNE 9.0 mph14.5 kmh 30.20 in1022.7 mb 0.00 in0.0 mm 0.00 in0.0 mm 0.06 in1.5 mm
05:16 PM 44.4°F6.9°C 29.4°F-1.4°C 56% 4.0 mph NE6.4 kmh NE 9.0 mph14.5 kmh 30.20 in1022.7 mb 0.00 in0.0 mm 0.00 in0.0 mm 0.06 in1.5 mm
05:21 PM 44.6°F7.0°C 30.4°F-0.9°C 58% 4.0 mph NNE6.4 kmh NNE 9.0 mph14.5 kmh 30.20 in1022.7 mb 0.00 in0.0 mm 0.00 in0.0 mm 0.06 in1.5 mm
05:26 PM 44.6°F7.0°C 28.6°F-1.9°C 54% 3.0 mph NE4.8 kmh NE 9.0 mph14.5 kmh 30.20 in1022.7 mb 0.00 in0.0 mm 0.00 in0.0 mm 0.06 in1.5 mm
05:31 PM 44.7°F7.1°C 29.2°F-1.6°C 55% 4.0 mph N6.4 kmh N 9.0 mph14.5 kmh 30.21 in1023.0 mb 0.00 in0.0 mm 0.00 in0.0 mm 0.06 in1.5 mm
05:36 PM 44.9°F7.2°C 28.9°F-1.7°C 54% Calm Calm 9.0 mph14.5 kmh 30.21 in1023.0 mb 0.00 in0.0 mm 0.00 in0.0 mm 0.06 in1.5 mm
05:41 PM 45.0°F7.2°C 28.5°F-1.9°C 53% 3.0 mph NE4.8 kmh NE 9.0 mph14.5 kmh 30.21 in1023.0 mb 0.00 in0.0 mm 0.00 in0.0 mm 0.06 in1.5 mm
05:46 PM 44.7°F7.1°C 27.8°F-2.3°C 52% Calm Calm 8.0 mph12.9 kmh 30.21 in1023.0 mb 0.00 in0.0 mm 0.00 in0.0 mm 0.06 in1.5 mm
05:51 PM 44.5°F6.9°C 27.6°F-2.4°C 52% 6.0 mph N9.7 kmh N 12.0 mph19.3 kmh 30.22 in1023.4 mb 0.00 in0.0 mm 0.00 in0.0 mm 0.06 in1.5 mm
05:56 PM 44.2°F6.8°C 26.8°F-2.9°C 51% 6.0 mph NE9.7 kmh NE 12.0 mph19.3 kmh 30.22 in1023.4 mb 0.00 in0.0 mm 0.00 in0.0 mm 0.06 in1.5 mm
06:01 PM 43.9°F6.6°C 27.0°F-2.8°C 52% 5.0 mph NE8.0 kmh NE 12.0 mph19.3 kmh 30.22 in1023.4 mb 0.00 in0.0 mm 0.00 in0.0 mm 0.06 in1.5 mm
06:06 PM 43.6°F6.4°C 27.2°F-2.7°C 53% 5.0 mph NE8.0 kmh NE 12.0 mph19.3 kmh 30.23 in1023.7 mb 0.00 in0.0 mm 0.00 in0.0 mm 0.06 in1.5 mm
06:11 PM 43.2°F6.2°C 28.3°F-2.1°C 56% 6.0 mph NE9.7 kmh NE 11.0 mph17.7 kmh 30.23 in1023.7 mb 0.00 in0.0 mm 0.00 in0.0 mm 0.06 in1.5 mm
06:16 PM 42.5°F5.8°C 29.3°F-1.5°C 60% 4.0 mph NE6.4 kmh NE 11.0 mph17.7 kmh 30.23 in1023.7 mb 0.00 in0.0 mm 0.00 in0.0 mm 0.06 in1.5 mm
06:21 PM 41.8°F5.4°C 29.5°F-1.4°C 62% 9.0 mph ENE14.5 kmh ENE 10.0 mph16.1 kmh 30.23 in1023.7 mb 0.00 in0.0 mm 0.00 in0.0 mm 0.06 in1.5 mm
06:26 PM 41.4°F5.2°C 29.9°F-1.2°C 64% 5.0 mph NE8.0 kmh NE 11.0 mph17.7 kmh 30.24 in1024.0 mb 0.00 in0.0 mm 0.00 in0.0 mm 0.06 in1.5 mm
06:31 PM 41.0°F5.0°C 29.6°F-1.3°C 64% 8.0 mph ENE12.9 kmh ENE 11.0 mph17.7 kmh 30.24 in1024.0 mb 0.00 in0.0 mm 0.00 in0.0 mm 0.06 in1.5 mm
06:36 PM 40.7°F4.8°C 29.3°F-1.5°C 64% 9.0 mph E14.5 kmh E 11.0 mph17.7 kmh 30.24 in1024.0 mb 0.00 in0.0 mm 0.00 in0.0 mm 0.06 in1.5 mm
06:41 PM 40.3°F4.6°C 29.3°F-1.5°C 65% 4.0 mph NE6.4 kmh NE 11.0 mph17.7 kmh 30.24 in1024.0 mb 0.00 in0.0 mm 0.00 in0.0 mm 0.06 in1.5 mm
06:46 PM 40.1°F4.5°C 29.1°F-1.6°C 65% 8.0 mph ENE12.9 kmh ENE 11.0 mph17.7 kmh 30.25 in1024.4 mb 0.00 in0.0 mm 0.00 in0.0 mm 0.06 in1.5 mm
06:51 PM 39.8°F4.3°C 28.8°F-1.8°C 65% 7.0 mph NE11.3 kmh NE 11.0 mph17.7 kmh 30.25 in1024.4 mb 0.00 in0.0 mm 0.00 in0.0 mm 0.06 in1.5 mm
06:56 PM 39.6°F4.2°C 29.0°F-1.7°C 66% 5.0 mph NE8.0 kmh NE 11.0 mph17.7 kmh 30.25 in1024.4 mb 0.00 in0.0 mm 0.00 in0.0 mm 0.06 in1.5 mm
07:01 PM 39.4°F4.1°C 28.8°F-1.8°C 66% 3.0 mph NE4.8 kmh NE 9.0 mph14.5 kmh 30.26 in1024.7 mb 0.00 in0.0 mm 0.00 in0.0 mm 0.06 in1.5 mm
07:06 PM 39.2°F4.0°C 29.0°F-1.7°C 67% 3.0 mph ENE4.8 kmh ENE 9.0 mph14.5 kmh 30.26 in1024.7 mb 0.00 in0.0 mm 0.00 in0.0 mm 0.06 in1.5 mm
07:11 PM 39.0°F3.9°C 28.8°F-1.8°C 67% 3.0 mph NE4.8 kmh NE 7.0 mph11.3 kmh 30.26 in1024.7 mb 0.00 in0.0 mm 0.00 in0.0 mm 0.06 in1.5 mm
07:16 PM 38.8°F3.8°C 29.0°F-1.7°C 68% 3.0 mph NE4.8 kmh NE 7.0 mph11.3 kmh 30.27 in1025.1 mb 0.00 in0.0 mm 0.00 in0.0 mm 0.06 in1.5 mm
07:21 PM 38.6°F3.7°C 28.8°F-1.8°C 68% 5.0 mph NNE8.0 kmh NNE 11.0 mph17.7 kmh 30.27 in1025.1 mb 0.00 in0.0 mm 0.00 in0.0 mm 0.06 in1.5 mm
07:26 PM 38.5°F3.6°C 28.7°F-1.8°C 68% 6.0 mph N9.7 kmh N 11.0 mph17.7 kmh 30.27 in1025.1 mb 0.00 in0.0 mm 0.00 in0.0 mm 0.06 in1.5 mm
07:31 PM 38.2°F3.4°C 28.4°F-2.0°C 68% 4.0 mph NE6.4 kmh NE 11.0 mph17.7 kmh 30.27 in1025.1 mb 0.00 in0.0 mm 0.00 in0.0 mm 0.06 in1.5 mm
07:36 PM 38.1°F3.4°C 28.3°F-2.1°C 68% 5.0 mph ENE8.0 kmh ENE 11.0 mph17.7 kmh 30.27 in1025.1 mb 0.00 in0.0 mm 0.00 in0.0 mm 0.06 in1.5 mm
07:41 PM 38.0°F3.3°C 28.2°F-2.1°C 68% 3.0 mph NE4.8 kmh NE 8.0 mph12.9 kmh 30.27 in1025.1 mb 0.00 in0.0 mm 0.00 in0.0 mm 0.06 in1.5 mm
07:46 PM 37.8°F3.2°C 28.4°F-2.0°C 69% 3.0 mph NE4.8 kmh NE 8.0 mph12.9 kmh 30.28 in1025.4 mb 0.00 in0.0 mm 0.00 in0.0 mm 0.06 in1.5 mm
07:51 PM 37.6°F3.1°C 28.2°F-2.1°C 69% 3.0 mph NE4.8 kmh NE 5.0 mph8.0 kmh 30.28 in1025.4 mb 0.00 in0.0 mm 0.00 in0.0 mm 0.06 in1.5 mm
07:56 PM 37.5°F3.1°C 28.1°F-2.2°C 69% 2.0 mph NE3.2 kmh NE 5.0 mph8.0 kmh 30.28 in1025.4 mb 0.00 in0.0 mm 0.00 in0.0 mm 0.06 in1.5 mm
08:01 PM 37.3°F2.9°C 28.3°F-2.1°C 70% 3.0 mph NE4.8 kmh NE 5.0 mph8.0 kmh 30.28 in1025.4 mb 0.00 in0.0 mm 0.00 in0.0 mm 0.06 in1.5 mm
08:06 PM 37.1°F2.8°C 28.1°F-2.2°C 70% 3.0 mph NE4.8 kmh NE 5.0 mph8.0 kmh 30.28 in1025.4 mb 0.00 in0.0 mm 0.00 in0.0 mm 0.06 in1.5 mm
08:11 PM 36.9°F2.7°C 28.3°F-2.1°C 71% 2.0 mph NE3.2 kmh NE 5.0 mph8.0 kmh 30.29 in1025.7 mb 0.00 in0.0 mm 0.00 in0.0 mm 0.06 in1.5 mm
08:16 PM 36.7°F2.6°C 28.1°F-2.2°C 71% 2.0 mph NE3.2 kmh NE 5.0 mph8.0 kmh 30.29 in1025.7 mb 0.00 in0.0 mm 0.00 in0.0 mm 0.06 in1.5 mm
08:21 PM 36.5°F2.5°C 28.2°F-2.1°C 72% 1.0 mph NE1.6 kmh NE 5.0 mph8.0 kmh 30.30 in1026.1 mb 0.00 in0.0 mm 0.00 in0.0 mm 0.06 in1.5 mm
08:26 PM 36.4°F2.4°C 28.1°F-2.2°C 72% 3.0 mph NE4.8 kmh NE 4.0 mph6.4 kmh 30.30 in1026.1 mb 0.00 in0.0 mm 0.00 in0.0 mm 0.06 in1.5 mm
08:31 PM 36.2°F2.3°C 27.9°F-2.3°C 72% 2.0 mph NE3.2 kmh NE 4.0 mph6.4 kmh 30.30 in1026.1 mb 0.00 in0.0 mm 0.00 in0.0 mm 0.06 in1.5 mm
08:36 PM 36.1°F2.3°C 28.2°F-2.1°C 73% 2.0 mph NE3.2 kmh NE 4.0 mph6.4 kmh 30.30 in1026.1 mb 0.00 in0.0 mm 0.00 in0.0 mm 0.06 in1.5 mm
08:41 PM 35.9°F2.2°C 28.0°F-2.2°C 73% 1.0 mph NE1.6 kmh NE 4.0 mph6.4 kmh 30.31 in1026.4 mb 0.00 in0.0 mm 0.00 in0.0 mm 0.06 in1.5 mm
08:46 PM 35.8°F2.1°C 28.2°F-2.1°C 74% 3.0 mph NE4.8 kmh NE 4.0 mph6.4 kmh 30.31 in1026.4 mb 0.00 in0.0 mm 0.00 in0.0 mm 0.06 in1.5 mm
08:51 PM 35.6°F2.0°C 28.1°F-2.2°C 74% 2.0 mph NE3.2 kmh NE 5.0 mph8.0 kmh 30.31 in1026.4 mb 0.00 in0.0 mm 0.00 in0.0 mm 0.06 in1.5 mm
08:56 PM 35.5°F1.9°C 28.3°F-2.1°C 75% 2.0 mph NNE3.2 kmh NNE 5.0 mph8.0 kmh 30.31 in1026.4 mb 0.00 in0.0 mm 0.00 in0.0 mm 0.06 in1.5 mm
09:01 PM 35.3°F1.8°C 28.1°F-2.2°C 75% 5.0 mph N8.0 kmh N 8.0 mph12.9 kmh 30.31 in1026.4 mb 0.00 in0.0 mm 0.00 in0.0 mm 0.06 in1.5 mm
09:06 PM 35.3°F1.8°C 28.4°F-2.0°C 76% 3.0 mph NE4.8 kmh NE 8.0 mph12.9 kmh 30.31 in1026.4 mb 0.00 in0.0 mm 0.00 in0.0 mm 0.06 in1.5 mm
09:11 PM 35.3°F1.8°C 28.4°F-2.0°C 76% 2.0 mph NE3.2 kmh NE 8.0 mph12.9 kmh 30.31 in1026.4 mb 0.00 in0.0 mm 0.00 in0.0 mm 0.06 in1.5 mm
09:16 PM 35.3°F1.8°C 28.8°F-1.8°C 77% 2.0 mph NE3.2 kmh NE 8.0 mph12.9 kmh 30.32 in1026.8 mb 0.00 in0.0 mm 0.00 in0.0 mm 0.06 in1.5 mm
09:21 PM 35.2°F1.8°C 28.7°F-1.8°C 77% 1.0 mph NE1.6 kmh NE 4.0 mph6.4 kmh 30.31 in1026.4 mb 0.00 in0.0 mm 0.00 in0.0 mm 0.06 in1.5 mm
09:26 PM 35.2°F1.8°C 28.7°F-1.8°C 77% 2.0 mph NE3.2 kmh NE 4.0 mph6.4 kmh 30.31 in1026.4 mb 0.00 in0.0 mm 0.00 in0.0 mm 0.06 in1.5 mm
09:31 PM 35.1°F1.7°C 28.6°F-1.9°C 77% 1.0 mph NE1.6 kmh NE 4.0 mph6.4 kmh 30.31 in1026.4 mb 0.00 in0.0 mm 0.00 in0.0 mm 0.06 in1.5 mm
09:36 PM 35.1°F1.7°C 28.6°F-1.9°C 77% Calm Calm 4.0 mph6.4 kmh 30.31 in1026.4 mb 0.00 in0.0 mm 0.00 in0.0 mm 0.06 in1.5 mm
09:41 PM 35.0°F1.7°C 28.5°F-1.9°C 77% Calm Calm 1.0 mph1.6 kmh 30.32 in1026.8 mb 0.00 in0.0 mm 0.00 in0.0 mm 0.06 in1.5 mm
09:46 PM 34.8°F1.6°C 28.3°F-2.1°C 77% Calm Calm 2.0 mph3.2 kmh 30.31 in1026.4 mb 0.00 in0.0 mm 0.00 in0.0 mm 0.06 in1.5 mm
09:51 PM 34.7°F1.5°C 28.2°F-2.1°C 77% 2.0 mph NE3.2 kmh NE 4.0 mph6.4 kmh 30.32 in1026.8 mb 0.00 in0.0 mm 0.00 in0.0 mm 0.06 in1.5 mm
09:56 PM 34.5°F1.4°C 28.0°F-2.2°C 77% 2.0 mph NE3.2 kmh NE 4.0 mph6.4 kmh 30.32 in1026.8 mb 0.00 in0.0 mm 0.00 in0.0 mm 0.06 in1.5 mm
10:01 PM 34.4°F1.3°C 27.9°F-2.3°C 77% Calm Calm 4.0 mph6.4 kmh 30.32 in1026.8 mb 0.00 in0.0 mm 0.00 in0.0 mm 0.06 in1.5 mm
10:06 PM 34.2°F1.2°C 27.7°F-2.4°C 77% Calm Calm -- 30.32 in1026.8 mb 0.00 in0.0 mm 0.00 in0.0 mm 0.06 in1.5 mm
10:11 PM 34.0°F1.1°C 27.2°F-2.7°C 76% Calm Calm -- 30.32 in1026.8 mb 0.00 in0.0 mm 0.00 in0.0 mm 0.06 in1.5 mm
10:16 PM 33.9°F1.1°C 27.1°F-2.7°C 76% Calm Calm -- 30.32 in1026.8 mb 0.00 in0.0 mm 0.00 in0.0 mm 0.06 in1.5 mm
10:21 PM 33.7°F0.9°C 26.9°F-2.8°C 76% Calm Calm -- 30.32 in1026.8 mb 0.00 in0.0 mm 0.00 in0.0 mm 0.06 in1.5 mm
10:26 PM 33.5°F0.8°C 26.4°F-3.1°C 75% Calm Calm -- 30.32 in1026.8 mb 0.00 in0.0 mm 0.00 in0.0 mm 0.06 in1.5 mm
10:31 PM 33.3°F0.7°C 26.2°F-3.2°C 75% Calm Calm -- 30.32 in1026.8 mb 0.00 in0.0 mm 0.00 in0.0 mm 0.06 in1.5 mm
10:36 PM 33.1°F0.6°C 26.0°F-3.3°C 75% Calm Calm -- 30.32 in1026.8 mb 0.00 in0.0 mm 0.00 in0.0 mm 0.06 in1.5 mm
10:41 PM 32.9°F0.5°C 25.8°F-3.4°C 75% Calm Calm -- 30.32 in1026.8 mb 0.00 in0.0 mm 0.00 in0.0 mm 0.06 in1.5 mm
10:46 PM 32.8°F0.4°C 25.7°F-3.5°C 75% Calm Calm -- 30.32 in1026.8 mb 0.00 in0.0 mm 0.00 in0.0 mm 0.06 in1.5 mm
10:51 PM 32.6°F0.3°C 25.5°F-3.6°C 75% Calm Calm -- 30.32 in1026.8 mb 0.00 in0.0 mm 0.00 in0.0 mm 0.06 in1.5 mm
10:56 PM 32.5°F0.3°C 25.4°F-3.7°C 75% Calm Calm -- 30.32 in1026.8 mb 0.00 in0.0 mm 0.00 in0.0 mm 0.06 in1.5 mm
11:01 PM 32.4°F0.2°C 25.6°F-3.6°C 76% 1.0 mph NE1.6 kmh NE 2.0 mph3.2 kmh 30.32 in1026.8 mb 0.00 in0.0 mm 0.00 in0.0 mm 0.04 in1.0 mm
11:06 PM 32.3°F0.2°C 25.9°F-3.4°C 77% Calm Calm 1.0 mph1.6 kmh 30.32 in1026.8 mb 0.00 in0.0 mm 0.00 in0.0 mm 0.04 in1.0 mm
11:11 PM 32.2°F0.1°C 25.8°F-3.4°C 77% Calm Calm -- 30.32 in1026.8 mb 0.00 in0.0 mm 0.00 in0.0 mm 0.04 in1.0 mm
11:16 PM 32.0°F0.0°C 25.9°F-3.4°C 78% Calm Calm -- 30.32 in1026.8 mb 0.00 in0.0 mm 0.00 in0.0 mm 0.04 in1.0 mm
11:21 PM 31.8°F-0.1°C 25.7°F-3.5°C 78% Calm Calm -- 30.32 in1026.8 mb 0.00 in0.0 mm 0.00 in0.0 mm 0.04 in1.0 mm
11:26 PM 31.7°F-0.2°C 25.6°F-3.6°C 78% Calm Calm -- 30.32 in1026.8 mb 0.00 in0.0 mm 0.00 in0.0 mm 0.04 in1.0 mm
11:31 PM 31.5°F-0.3°C 25.7°F-3.5°C 79% Calm Calm -- 30.32 in1026.8 mb 0.00 in0.0 mm 0.00 in0.0 mm 0.04 in1.0 mm
11:36 PM 31.3°F-0.4°C 25.5°F-3.6°C 79% Calm Calm -- 30.32 in1026.8 mb 0.00 in0.0 mm 0.00 in0.0 mm 0.04 in1.0 mm
11:41 PM 31.1°F-0.5°C 25.3°F-3.7°C 79% Calm Calm -- 30.32 in1026.8 mb 0.00 in0.0 mm 0.00 in0.0 mm 0.04 in1.0 mm
11:46 PM 31.0°F-0.6°C 25.2°F-3.8°C 79% Calm Calm -- 30.32 in1026.8 mb 0.00 in0.0 mm 0.00 in0.0 mm 0.04 in1.0 mm
11:51 PM 30.8°F-0.7°C 25.0°F-3.9°C 79% Calm Calm -- 30.33 in1027.1 mb 0.00 in0.0 mm 0.00 in0.0 mm 0.04 in1.0 mm
11:56 PM 30.6°F-0.8°C 25.2°F-3.8°C 80% Calm Calm -- 30.33 in1027.1 mb 0.00 in0.0 mm 0.00 in0.0 mm 0.04 in1.0 mm